Time;durP1;ratioP1;P1;durP2;ratioP2;P2;SDS_P1;SDS_P2;PMS_P1;PMS_P2;Temp;Humidity;BMP_temperature;BMP_pressure;BME280_temperature;BME280_humidity;BME280_pressure;Samples;Min_cycle;Max_cycle;Signal;HPM_P1;HPM_P2
2023/06/16 00:04:28;;;;;;;16.90;12.70;;;;;;;16.68;68.59;98903.85;223748;182;145134;-67
2023/06/16 00:09:32;;;;;;;18.60;12.60;;;;;;;16.67;68.59;98900.44;223758;182;138785;-64
2023/06/16 00:14:35;;;;;;;19.20;13.40;;;;;;;16.60;68.56;98898.73;223761;182;137597;-64
2023/06/16 00:19:39;;;;;;;17.40;13.10;;;;;;;16.52;68.71;98893.67;222640;182;147627;-65
2023/06/16 00:24:43;;;;;;;19.90;14.30;;;;;;;16.44;68.73;98892.62;223784;182;138232;-67
2023/06/16 00:29:46;;;;;;;17.70;12.90;;;;;;;16.30;68.90;98896.36;223779;182;140232;-63
2023/06/16 00:34:51;;;;;;;16.80;11.70;;;;;;;16.27;69.26;98892.64;223814;182;146691;-66
2023/06/16 00:39:55;;;;;;;15.40;11.50;;;;;;;16.26;69.38;98882.92;223727;182;138858;-65
2023/06/16 00:44:59;;;;;;;15.50;12.00;;;;;;;16.27;69.45;98880.29;223778;182;137040;-67
2023/06/16 01:50:44;;;;;;;14.10;12.20;;;;;;;15.74;69.76;98870.41;221555;192;666300;-71
2023/06/16 01:55:49;;;;;;;13.40;11.40;;;;;;;15.73;70.06;98868.73;223884;183;137460;-79
2023/06/16 02:00:59;;;;;;;13.10;10.60;;;;;;;15.69;69.77;98869.24;223877;182;143989;-69
2023/06/16 02:06:11;;;;;;;11.90;10.10;;;;;;;15.67;69.49;98866.02;223893;182;141221;-71
2023/06/16 02:11:15;;;;;;;14.00;10.80;;;;;;;15.71;69.34;98861.89;223803;182;137850;-79
2023/06/16 02:16:19;;;;;;;13.70;11.40;;;;;;;15.81;69.07;98867.88;223864;182;144082;-64
2023/06/16 02:21:22;;;;;;;17.90;11.40;;;;;;;15.85;68.72;98864.62;223660;182;138952;-72
2023/06/16 02:26:27;;;;;;;12.90;11.10;;;;;;;15.89;68.74;98861.80;223798;182;137737;-71
2023/06/16 02:31:30;;;;;;;18.00;12.00;;;;;;;15.89;69.04;98864.31;223804;182;143902;-74
2023/06/16 02:36:38;;;;;;;18.80;11.90;;;;;;;15.82;69.05;98856.69;223767;182;138642;-71
2023/06/16 02:41:43;;;;;;;15.90;11.70;;;;;;;15.75;68.97;98851.36;223782;182;137646;-70
2023/06/16 02:46:49;;;;;;;13.00;10.70;;;;;;;15.75;69.12;98854.45;223788;183;145008;-69
2023/06/16 02:51:52;;;;;;;13.40;10.30;;;;;;;15.71;69.22;98854.96;223864;183;138971;-67
2023/06/16 02:56:56;;;;;;;14.80;10.30;;;;;;;15.73;69.17;98852.48;223913;182;137506;-67
2023/06/16 03:02:11;;;;;;;;;;;;;;;15.75;69.10;98856.73;223708;183;145297;-68
2023/06/16 03:07:23;;;;;;;81.40;60.20;;;;;;;15.70;69.11;98856.07;223780;182;138204;-68
2023/06/16 03:12:27;;;;;;;16.80;12.10;;;;;;;15.63;69.03;98855.58;223711;183;137229;-69
2023/06/16 03:17:36;;;;;;;144.80;106.20;;;;;;;15.67;69.02;98853.55;223720;183;145758;-66
2023/06/16 03:22:40;;;;;;;18.00;13.80;;;;;;;15.72;69.54;98859.72;223695;183;138843;-69
2023/06/16 03:27:43;;;;;;;15.70;11.50;;;;;;;15.72;69.49;98858.77;223637;183;136819;-67
2023/06/16 03:32:50;;;;;;;22.30;10.80;;;;;;;15.66;69.47;98860.56;223707;182;147133;-70
2023/06/16 03:37:53;;;;;;;19.30;10.70;;;;;;;15.60;69.43;98867.33;223733;183;138472;-71
2023/06/16 03:42:58;;;;;;;17.30;11.30;;;;;;;15.62;69.51;98864.06;223785;183;137656;-66
2023/06/16 03:48:01;;;;;;;19.10;12.20;;;;;;;15.66;69.53;98862.73;223627;183;145558;-67
2023/06/16 03:53:11;;;;;;;15.30;11.50;;;;;;;15.67;69.50;98861.42;223748;183;139932;-70
2023/06/16 03:58:22;;;;;;;15.60;11.90;;;;;;;15.73;69.53;98863.41;223770;183;137467;-68
2023/06/16 04:03:28;;;;;;;53.90;42.00;;;;;;;15.75;69.42;98867.11;223738;181;145289;-66
2023/06/16 04:08:32;;;;;;;20.40;13.80;;;;;;;15.82;69.32;98871.84;223699;182;138744;-68
2023/06/16 04:13:35;;;;;;;16.20;11.20;;;;;;;15.83;69.12;98874.11;223726;181;140054;-70
2023/06/16 04:18:47;;;;;;;13.90;11.40;;;;;;;15.83;69.12;98881.05;223799;182;145535;-66
2023/06/16 04:23:51;;;;;;;17.90;11.20;;;;;;;15.93;68.94;98878.83;223704;181;139120;-66
2023/06/16 04:28:55;;;;;;;14.90;11.40;;;;;;;15.99;68.37;98872.58;223819;181;137084;-68
2023/06/16 04:34:04;;;;;;;16.90;11.50;;;;;;;16.03;68.17;98873.99;223679;181;146006;-66
2023/06/16 04:39:11;;;;;;;18.00;12.50;;;;;;;16.05;68.16;98870.96;223827;181;138425;-65
2023/06/16 04:44:15;;;;;;;17.70;12.40;;;;;;;16.08;68.22;98864.29;223660;182;138050;-63
2023/06/16 04:49:19;;;;;;;16.80;12.60;;;;;;;16.11;68.26;98862.95;223756;182;146579;-68
2023/06/16 04:54:24;;;;;;;17.10;12.80;;;;;;;16.12;68.32;98869.09;223710;182;138082;-68
2023/06/16 04:59:31;;;;;;;17.00;11.00;;;;;;;16.21;68.32;98870.61;223708;181;136908;-65
2023/06/16 05:04:35;;;;;;;15.30;12.00;;;;;;;16.36;68.01;98865.72;223749;181;145201;-66
2023/06/16 05:09:38;;;;;;;17.60;11.30;;;;;;;16.53;67.74;98872.95;223874;182;138885;-65
2023/06/16 05:14:44;;;;;;;15.20;10.50;;;;;;;16.72;67.56;98882.20;223768;182;138087;-68
2023/06/16 05:19:48;;;;;;;17.10;11.60;;;;;;;16.95;67.52;98879.28;223709;182;146100;-72
2023/06/16 05:24:57;;;;;;;18.00;13.00;;;;;;;17.12;67.07;98877.38;223770;182;139703;-70
2023/06/16 05:30:01;;;;;;;19.00;12.30;;;;;;;17.19;66.81;98874.35;223811;182;137115;-65
2023/06/16 05:35:06;;;;;;;15.20;10.40;;;;;;;17.27;66.41;98877.44;223792;181;145665;-66
2023/06/16 05:40:10;;;;;;;18.10;13.20;;;;;;;17.29;66.15;98877.44;223825;182;138207;-64
2023/06/16 05:50:51;;;;;;;15.30;9.50;;;;;;;17.45;66.57;98872.48;219610;193;666344;-71
2023/06/16 05:55:55;;;;;;;15.60;9.20;;;;;;;17.57;66.53;98870.52;223217;187;137600;-68
2023/06/16 06:01:23;;;;;;;17.90;9.40;;;;;;;17.74;65.75;98867.33;223700;184;144624;-70
2023/06/16 06:06:45;;;;;;;18.40;11.30;;;;;;;17.96;65.71;98862.86;223684;184;138244;-68
2023/06/16 06:11:49;;;;;;;16.40;11.10;;;;;;;18.14;65.52;98860.11;223691;183;137152;-69
2023/06/16 06:16:53;;;;;;;14.20;9.00;;;;;;;18.28;64.92;98859.48;223651;183;144437;-67
2023/06/16 06:21:56;;;;;;;18.20;9.60;;;;;;;18.41;64.44;98860.13;223554;184;138473;-66
2023/06/16 06:27:00;;;;;;;13.00;8.90;;;;;;;18.54;63.39;98863.42;223581;185;138342;-67
2023/06/16 06:32:07;;;;;;;15.20;9.20;;;;;;;18.61;62.93;98864.31;223583;184;143784;-67
2023/06/16 06:37:18;;;;;;;13.50;8.30;;;;;;;18.76;63.18;98869.70;223648;183;138490;-70
2023/06/16 06:42:23;;;;;;;14.20;8.30;;;;;;;18.89;63.00;98866.08;223641;183;137386;-70
2023/06/16 06:47:30;;;;;;;11.50;8.60;;;;;;;19.01;62.92;98872.27;223607;184;145107;-69
2023/06/16 06:52:40;;;;;;;16.00;8.90;;;;;;;19.11;62.73;98871.09;223568;184;138860;-69
2023/06/16 06:57:44;;;;;;;13.70;8.70;;;;;;;19.18;62.43;98865.02;223665;183;139249;-69
2023/06/16 07:02:47;;;;;;;14.40;8.80;;;;;;;19.26;62.47;98868.70;223710;184;258133;-71
2023/06/16 07:07:51;;;;;;;17.80;9.00;;;;;;;19.37;61.58;98872.41;223620;184;139934;-72
2023/06/16 07:12:55;;;;;;;14.00;9.30;;;;;;;19.47;61.33;98875.50;223596;184;137066;-73
2023/06/16 07:17:58;;;;;;;10.90;9.50;;;;;;;19.55;60.95;98876.30;223670;183;145141;-69
2023/06/16 07:23:02;;;;;;;16.10;12.60;;;;;;;19.64;60.20;98875.99;223590;184;139336;-72
2023/06/16 07:28:07;;;;;;;13.20;11.00;;;;;;;19.71;58.16;98872.61;223627;183;136695;-74
2023/06/16 07:33:11;;;;;;;13.10;10.40;;;;;;;19.79;58.85;98867.80;223654;183;145873;-68
2023/06/16 07:38:15;;;;;;;11.60;10.00;;;;;;;19.89;59.00;98868.39;223765;183;139013;-66
2023/06/16 07:43:18;;;;;;;18.20;11.50;;;;;;;19.96;58.39;98868.02;223780;183;137636;-69
2023/06/16 07:48:21;;;;;;;15.80;10.40;;;;;;;19.96;58.53;98863.30;223712;182;145529;-68
2023/06/16 07:53:24;;;;;;;13.70;9.90;;;;;;;20.00;58.95;98861.98;223614;182;140747;-67
2023/06/16 07:58:28;;;;;;;21.70;13.30;;;;;;;20.07;59.01;98858.58;223594;182;137719;-71
2023/06/16 08:03:31;;;;;;;17.20;9.50;;;;;;;20.16;59.01;98857.67;223674;183;145844;-67
2023/06/16 08:08:35;;;;;;;12.50;9.80;;;;;;;20.25;58.93;98858.16;223773;183;138044;-65
2023/06/16 08:13:39;;;;;;;14.70;9.50;;;;;;;20.35;58.97;98857.06;223564;182;137153;-63
2023/06/16 08:18:42;;;;;;;13.30;9.40;;;;;;;20.47;58.69;98850.80;223791;182;145732;-67
2023/06/16 08:23:46;;;;;;;11.20;9.20;;;;;;;20.57;58.71;98843.60;223730;182;139317;-66
2023/06/16 08:28:50;;;;;;;13.10;9.30;;;;;;;20.67;58.63;98850.13;223726;183;137344;-67
2023/06/16 08:33:54;;;;;;;11.80;9.00;;;;;;;20.77;58.06;98847.55;223762;183;145630;-67
2023/06/16 08:38:57;;;;;;;12.00;9.00;;;;;;;20.88;57.28;98839.96;223815;182;138510;-67
2023/06/16 08:44:02;;;;;;;13.00;9.50;;;;;;;20.97;57.23;98839.11;223923;183;136765;-66
2023/06/16 08:49:06;;;;;;;14.70;10.30;;;;;;;21.01;56.23;98836.14;223741;182;145385;-67
2023/06/16 08:54:10;;;;;;;12.40;9.70;;;;;;;21.00;56.17;98836.58;223824;182;138670;-68
2023/06/16 08:59:17;;;;;;;11.80;9.80;;;;;;;21.06;55.84;98835.58;223764;183;141785;-65
2023/06/16 09:04:20;;;;;;;11.20;9.30;;;;;;;21.12;55.20;98837.70;223775;182;145532;-66
2023/06/16 09:09:24;;;;;;;11.50;9.10;;;;;;;21.17;55.12;98833.27;223759;182;139310;-69
2023/06/16 09:14:31;;;;;;;11.70;8.90;;;;;;;21.25;55.05;98824.66;223811;182;136950;-69
2023/06/16 09:19:48;;;;;;;9.80;8.80;;;;;;;21.37;54.90;98823.44;223687;183;145036;-67
2023/06/16 09:24:59;;;;;;;11.10;8.60;;;;;;;21.51;54.42;98818.75;223787;183;138410;-69
2023/06/16 09:30:03;;;;;;;11.30;9.20;;;;;;;21.65;53.54;98817.23;223802;182;137986;-68
2023/06/16 09:35:28;;;;;;;10.70;8.50;;;;;;;21.79;53.26;98810.44;223743;182;145181;-66
2023/06/16 09:40:32;;;;;;;12.70;8.50;;;;;;;21.89;53.12;98808.20;223735;182;138666;-69
2023/06/16 09:45:36;;;;;;;10.60;9.10;;;;;;;21.94;53.03;98806.14;223773;182;137533;-69
2023/06/16 09:50:40;;;;;;;11.90;9.60;;;;;;;21.99;52.83;98797.76;223808;182;145242;-66
2023/06/16 09:55:45;;;;;;;16.40;9.20;;;;;;;21.99;53.36;98795.77;223763;182;138362;-65
2023/06/16 10:00:49;;;;;;;10.70;8.80;;;;;;;22.07;53.44;98794.61;223832;183;137581;-66
2023/06/16 10:05:54;;;;;;;13.90;9.00;;;;;;;22.25;53.08;98785.40;223788;182;146671;-69
2023/06/16 10:10:57;;;;;;;11.50;8.90;;;;;;;22.39;52.66;98783.86;223732;182;139027;-65
2023/06/16 10:16:05;;;;;;;12.70;9.10;;;;;;;22.55;52.67;98781.20;223690;182;137201;-65
2023/06/16 10:21:10;;;;;;;10.50;9.00;;;;;;;22.65;52.17;98777.95;223726;183;148237;-67
2023/06/16 10:26:15;;;;;;;13.20;9.20;;;;;;;22.75;51.27;98778.85;223674;182;138403;-66
2023/06/16 10:31:19;;;;;;;10.70;8.50;;;;;;;22.78;51.53;98773.94;223676;182;137759;-65
2023/06/16 10:36:27;;;;;;;11.90;8.90;;;;;;;22.81;51.40;98777.55;223778;182;145281;-65
2023/06/16 10:41:31;;;;;;;291.90;236.30;;;;;;;22.88;50.50;98772.45;223727;182;139046;-66
2023/06/16 10:46:36;;;;;;;23.60;19.50;;;;;;;22.98;50.76;98770.79;223830;182;138356;-64
2023/06/16 10:51:48;;;;;;;13.80;11.00;;;;;;;23.05;50.66;98765.70;223831;182;145651;-64
2023/06/16 10:57:03;;;;;;;9.70;8.70;;;;;;;23.06;50.06;98758.00;223843;182;138795;-65
2023/06/16 11:02:18;;;;;;;10.00;8.50;;;;;;;23.11;49.97;98754.15;223707;182;137312;-66
2023/06/16 11:07:21;;;;;;;13.90;8.80;;;;;;;23.21;49.45;98744.81;223845;182;145135;-64
2023/06/16 11:12:47;;;;;;;11.10;9.10;;;;;;;23.25;49.07;98746.54;223727;182;138428;-66
2023/06/16 11:17:50;;;;;;;11.10;9.10;;;;;;;23.30;49.37;98741.41;223679;183;137046;-65
2023/06/16 11:22:53;;;;;;;12.00;10.70;;;;;;;23.33;49.23;98738.61;223654;181;145395;-68
2023/06/16 11:27:57;;;;;;;27.10;23.10;;;;;;;23.32;48.90;98737.63;223613;181;138472;-65
2023/06/16 11:33:01;;;;;;;12.00;9.80;;;;;;;23.32;48.60;98736.22;223778;182;136937;-68
2023/06/16 11:38:06;;;;;;;;;;;;;;;23.30;48.74;98729.59;223716;183;146324;-66
2023/06/16 11:43:10;;;;;;;10.80;9.30;;;;;;;23.23;48.12;98725.63;223663;182;138558;-66
2023/06/16 11:48:13;;;;;;;11.20;8.80;;;;;;;23.18;48.92;98725.29;222229;182;136584;-68
2023/06/16 11:53:16;;;;;;;11.60;8.90;;;;;;;23.20;49.10;98722.56;223796;182;145083;-66
2023/06/16 11:58:25;;;;;;;13.60;9.30;;;;;;;23.23;48.93;98714.76;223663;181;138613;-66
2023/06/16 12:03:31;;;;;;;10.50;9.30;;;;;;;23.19;48.67;98710.52;223696;182;137020;-66
2023/06/16 12:08:41;;;;;;;12.60;9.80;;;;;;;23.20;48.85;98706.20;223572;182;145774;-66
2023/06/16 12:13:44;;;;;;;13.10;9.40;;;;;;;23.25;48.95;98707.36;223748;182;138637;-64
2023/06/16 12:18:50;;;;;;;12.60;9.70;;;;;;;23.37;49.12;98704.84;223833;183;137334;-66
2023/06/16 12:23:54;;;;;;;;;;;;;;;23.42;48.73;98709.40;223860;182;145815;-67
2023/06/16 12:28:59;;;;;;;10.10;9.00;;;;;;;23.21;48.75;98711.69;223807;182;139044;-66
2023/06/16 12:34:02;;;;;;;10.40;8.90;;;;;;;23.09;48.66;98708.42;223789;182;137212;-65
2023/06/16 12:39:18;;;;;;;10.90;9.40;;;;;;;23.17;49.35;98708.09;223784;182;144899;-66
2023/06/16 12:44:49;;;;;;;10.30;8.50;;;;;;;23.33;49.13;98705.90;223641;182;138309;-65
2023/06/16 12:49:54;;;;;;;10.60;8.90;;;;;;;23.44;48.63;98707.35;223789;182;137537;-64
2023/06/16 12:54:59;;;;;;;11.30;8.20;;;;;;;23.50;48.08;98698.80;223748;182;146034;-69
2023/06/16 13:00:03;;;;;;;10.30;8.30;;;;;;;23.56;47.79;98693.54;223735;182;139045;-67
2023/06/16 13:05:07;;;;;;;14.30;10.30;;;;;;;23.61;47.54;98696.41;223808;182;137444;-65
2023/06/16 13:10:10;;;;;;;10.50;8.90;;;;;;;23.69;47.62;98694.92;223706;182;145181;-67
2023/06/16 13:15:14;;;;;;;10.60;8.80;;;;;;;23.76;47.37;98690.59;223824;182;138911;-64
2023/06/16 13:20:27;;;;;;;9.00;8.10;;;;;;;23.87;47.12;98688.39;223825;182;137542;-67
2023/06/16 13:25:30;;;;;;;11.90;8.10;;;;;;;23.95;47.06;98687.37;223770;182;145738;-68
2023/06/16 13:30:33;;;;;;;27.80;23.40;;;;;;;23.85;46.81;98683.45;223452;182;138788;-66
2023/06/16 13:35:36;;;;;;;9.60;8.10;;;;;;;23.74;46.14;98678.52;223639;182;136942;-67
2023/06/16 13:40:39;;;;;;;9.40;7.60;;;;;;;23.75;46.42;98673.11;223665;183;145232;-65
2023/06/16 13:45:43;;;;;;;11.60;7.90;;;;;;;23.73;46.30;98670.15;223729;182;138482;-66
2023/06/16 13:50:46;;;;;;;8.70;6.90;;;;;;;23.64;46.38;98669.04;223682;182;137488;-66
2023/06/16 13:55:50;;;;;;;11.20;7.20;;;;;;;23.61;46.51;98660.17;223767;182;144964;-67
2023/06/16 14:00:53;;;;;;;10.80;7.80;;;;;;;23.57;46.67;98662.83;223481;182;139741;-66
2023/06/16 14:05:57;;;;;;;11.30;7.20;;;;;;;23.40;46.63;98663.05;223512;182;137530;-67
2023/06/16 14:11:00;;;;;;;10.20;7.40;;;;;;;23.26;46.53;98652.73;223410;216;144978;-67
2023/06/16 14:16:07;;;;;;;8.30;7.10;;;;;;;23.23;46.95;98653.21;223467;216;138739;-65
2023/06/16 14:50:46;;;;;;;11.00;6.80;;;;;;;23.10;46.84;98634.86;221693;213;666368;-68
2023/06/16 14:55:50;;;;;;;7.50;6.70;;;;;;;23.05;46.77;98630.42;223126;213;136591;-69
2023/06/16 15:00:54;;;;;;;10.80;7.10;;;;;;;22.99;46.58;98631.92;222718;217;143488;-67
2023/06/16 15:05:59;;;;;;;10.40;6.80;;;;;;;22.95;46.86;98631.57;222779;216;138064;-69
2023/06/16 15:11:03;;;;;;;7.20;6.50;;;;;;;22.92;47.34;98625.58;222503;182;136575;-68
2023/06/16 15:16:07;;;;;;;8.30;6.90;;;;;;;22.93;47.27;98624.02;222746;216;143522;-67
2023/06/16 15:21:10;;;;;;;56.70;46.60;;;;;;;22.99;47.44;98618.67;222657;216;138791;-67
2023/06/16 15:26:17;;;;;;;10.10;8.00;;;;;;;23.03;47.43;98610.54;222696;215;138004;-68
2023/06/16 15:31:20;;;;;;;9.70;6.90;;;;;;;23.08;47.51;98606.34;222779;216;143962;-66
2023/06/16 15:36:24;;;;;;;9.70;6.60;;;;;;;23.10;47.61;98603.70;222971;213;139777;-66
2023/06/16 15:41:27;;;;;;;11.30;6.80;;;;;;;23.09;47.33;98604.50;223031;190;138582;-64
2023/06/16 15:46:30;;;;;;;11.00;7.20;;;;;;;23.08;46.61;98598.29;223027;184;145335;-66
2023/06/16 15:51:34;;;;;;;14.30;9.40;;;;;;;23.07;47.59;98596.13;223008;214;138110;-65
2023/06/16 15:56:39;;;;;;;12.40;8.40;;;;;;;23.03;48.26;98601.85;223035;191;136814;-64
2023/06/16 16:01:43;;;;;;;13.20;10.60;;;;;;;22.95;48.30;98596.63;223093;214;145996;-69
2023/06/16 16:06:47;;;;;;;10.00;8.30;;;;;;;22.90;48.05;98599.61;222981;212;138327;-65
2023/06/16 16:11:50;;;;;;;10.40;8.50;;;;;;;22.94;48.05;98595.70;223082;186;137704;-69
2023/06/16 16:16:57;;;;;;;17.40;8.00;;;;;;;22.91;48.48;98594.38;223047;181;145480;-67
2023/06/16 16:22:01;;;;;;;89.90;70.00;;;;;;;22.88;48.51;98594.39;222924;192;140386;-67
2023/06/16 16:27:05;;;;;;;18.50;13.00;;;;;;;22.90;48.40;98596.45;223106;214;137439;-67
2023/06/16 16:32:11;;;;;;;13.10;8.40;;;;;;;22.94;48.21;98595.89;222980;214;146467;-69
2023/06/16 16:37:14;;;;;;;12.20;8.40;;;;;;;22.96;49.37;98600.23;223117;214;138520;-69
2023/06/16 16:42:18;;;;;;;10.80;7.50;;;;;;;22.92;49.38;98602.83;223073;195;137232;-66
2023/06/16 16:50:47;;;;;;;11.40;7.60;;;;;;;22.85;48.84;98605.09;220805;192;676141;-66
2023/06/16 16:55:51;;;;;;;14.50;7.90;;;;;;;22.84;49.10;98604.64;222872;183;136364;-65
2023/06/16 17:00:54;;;;;;;18.10;13.10;;;;;;;22.84;49.15;98606.61;222734;183;144371;-66
2023/06/16 17:05:58;;;;;;;16.00;8.70;;;;;;;22.79;49.16;98606.15;223662;183;138521;-66
2023/06/16 17:11:02;;;;;;;215.90;177.30;;;;;;;22.79;49.02;98608.16;223459;183;136457;-66
2023/06/16 17:16:05;;;;;;;69.30;56.60;;;;;;;22.85;48.80;98603.28;223525;184;144523;-66
2023/06/16 17:21:09;;;;;;;60.50;45.80;;;;;;;22.88;48.56;98611.14;223644;184;139423;-66
2023/06/16 17:26:13;;;;;;;18.80;15.90;;;;;;;22.86;48.86;98607.27;223653;183;137285;-68
2023/06/16 17:31:25;;;;;;;9.40;7.60;;;;;;;22.81;49.36;98605.02;223716;183;143601;-67
2023/06/16 17:36:39;;;;;;;10.30;7.60;;;;;;;22.76;48.73;98597.33;223622;183;140898;-66
2023/06/16 17:41:43;;;;;;;9.10;6.80;;;;;;;22.72;48.52;98593.94;223599;184;136510;-66
2023/06/16 17:46:48;;;;;;;70.30;62.20;;;;;;;22.67;48.21;98591.48;223599;183;145617;-66
2023/06/16 17:51:51;;;;;;;169.50;147.40;;;;;;;22.68;48.32;98592.84;223484;183;138215;-69
2023/06/16 17:56:55;;;;;;;45.30;34.50;;;;;;;22.72;49.27;98593.10;223642;183;137181;-67
2023/06/16 18:01:59;;;;;;;12.00;8.30;;;;;;;22.72;49.37;98591.23;223507;184;146022;-66
2023/06/16 18:07:03;;;;;;;12.40;9.20;;;;;;;22.67;49.14;98587.02;223669;183;139100;-65
2023/06/16 18:12:06;;;;;;;46.40;38.10;;;;;;;22.59;49.95;98585.23;223592;183;137663;-66
2023/06/16 18:17:09;;;;;;;24.20;17.90;;;;;;;22.54;50.35;98585.25;223452;184;145407;-64
2023/06/16 18:22:13;;;;;;;13.00;10.10;;;;;;;22.45;50.87;98589.36;223731;183;138387;-65
2023/06/16 18:27:16;;;;;;;78.10;69.50;;;;;;;22.42;51.75;98585.59;223765;182;136852;-66
2023/06/16 18:32:20;;;;;;;13.70;12.20;;;;;;;22.37;52.80;98590.37;223734;182;146056;-66
2023/06/16 18:37:24;;;;;;;12.70;10.50;;;;;;;22.29;53.36;98590.41;223640;182;139571;-66
2023/06/16 18:42:28;;;;;;;12.60;11.00;;;;;;;22.21;53.97;98596.59;223780;182;137152;-67
2023/06/16 18:47:36;;;;;;;24.70;21.30;;;;;;;22.10;54.43;98598.20;223745;182;146169;-66
2023/06/16 18:52:40;;;;;;;13.70;10.60;;;;;;;21.97;54.93;98595.23;223771;182;139026;-64
2023/06/16 18:57:43;;;;;;;11.90;9.60;;;;;;;21.86;55.18;98599.80;223717;182;136926;-65
2023/06/16 19:02:47;;;;;;;13.00;9.60;;;;;;;21.73;55.53;98601.30;223676;182;146178;-65
2023/06/16 19:07:50;;;;;;;12.70;9.80;;;;;;;21.59;56.19;98606.13;223696;183;140081;-66
2023/06/16 19:12:53;;;;;;;11.70;9.50;;;;;;;21.45;56.60;98611.27;223739;182;136937;-66
2023/06/16 19:17:57;;;;;;;12.90;9.70;;;;;;;21.34;56.78;98614.54;223642;182;145285;-63
2023/06/16 19:23:00;;;;;;;9.90;8.80;;;;;;;21.23;56.98;98617.96;223721;182;138439;-65
2023/06/16 19:28:06;;;;;;;;;;;;;;;21.13;57.10;98626.69;223652;182;136088;-65
2023/06/16 19:33:13;;;;;;;;;;;;;;;20.98;57.03;98625.44;223779;182;145064;-65
2023/06/16 19:38:17;;;;;;;11.20;8.50;;;;;;;20.84;57.33;98633.36;223774;183;138304;-64
2023/06/16 19:43:20;;;;;;;11.00;9.10;;;;;;;20.70;57.77;98631.98;223860;182;136567;-65
2023/06/16 19:50:44;;;;;;;10.50;9.10;;;;;;;20.61;58.44;98633.38;220459;190;676698;-63
2023/06/16 19:55:47;;;;;;;14.20;10.30;;;;;;;20.49;58.76;98631.39;223772;183;136350;-64
2023/06/16 20:00:52;;;;;;;;;;;;;;;20.37;59.15;98624.41;223581;183;143896;-66
2023/06/16 20:05:56;;;;;;;10.90;9.20;;;;;;;20.24;59.91;98629.60;223726;183;139006;-64
2023/06/16 20:10:59;;;;;;;12.00;9.30;;;;;;;20.14;60.09;98631.30;223580;183;136537;-65
2023/06/16 20:16:03;;;;;;;13.50;9.40;;;;;;;20.06;60.38;98628.88;223691;183;149502;-65
2023/06/16 20:21:07;;;;;;;12.00;9.90;;;;;;;20.00;60.67;98628.91;223646;183;138859;-63
2023/06/16 20:26:10;;;;;;;11.70;9.50;;;;;;;19.96;60.92;98625.83;223749;183;139766;-66
2023/06/16 20:31:13;;;;;;;11.80;10.00;;;;;;;19.87;61.13;98630.13;223603;183;143349;-63
2023/06/16 20:36:18;;;;;;;14.10;10.40;;;;;;;19.79;61.42;98624.55;223683;183;138617;-67
2023/06/16 20:41:28;;;;;;;13.00;9.60;;;;;;;19.73;61.59;98624.34;223662;183;136946;-65
2023/06/16 20:50:49;;;;;;;13.60;9.90;;;;;;;19.65;61.93;98623.13;221482;194;677010;-64
2023/06/16 20:55:52;;;;;;;12.80;9.60;;;;;;;19.63;62.24;98626.83;223301;186;136589;-65
2023/06/16 21:00:57;;;;;;;19.10;10.60;;;;;;;19.59;61.95;98630.30;223582;183;144251;-65
2023/06/16 21:06:01;;;;;;;15.00;10.20;;;;;;;19.51;62.35;98626.25;223675;183;138271;-63
2023/06/16 21:11:04;;;;;;;13.50;10.70;;;;;;;19.42;62.45;98619.91;223731;183;137424;-65
2023/06/16 21:16:11;;;;;;;11.40;10.20;;;;;;;19.33;62.72;98620.61;223707;183;143989;-65
2023/06/16 21:21:41;;;;;;;15.10;10.40;;;;;;;19.26;63.02;98622.39;223710;180;140567;-65
2023/06/16 21:26:46;;;;;;;13.70;10.50;;;;;;;19.24;63.25;98631.12;223720;183;136563;-66
2023/06/16 21:31:49;;;;;;;;;;;;;;;19.22;63.35;98629.73;223715;182;143997;-65
2023/06/16 21:36:53;;;;;;;18.50;12.40;;;;;;;19.15;63.33;98633.22;223765;183;138778;-65
2023/06/16 21:41:56;;;;;;;19.20;12.50;;;;;;;19.12;63.48;98627.24;223682;182;136740;-65
2023/06/16 21:46:59;;;;;;;15.20;11.10;;;;;;;19.11;63.83;98624.09;223687;183;145755;-64
2023/06/16 21:52:03;;;;;;;14.40;11.10;;;;;;;19.10;64.37;98619.07;223696;182;139693;-65
2023/06/16 21:57:06;;;;;;;16.30;11.90;;;;;;;19.12;64.25;98622.42;223830;183;139054;-66
2023/06/16 22:02:09;;;;;;;13.10;11.70;;;;;;;19.15;64.36;98618.65;223623;182;146017;-65
2023/06/16 22:07:13;;;;;;;16.90;12.10;;;;;;;19.17;64.51;98621.05;223526;182;138846;-66
2023/06/16 22:12:17;;;;;;;14.40;12.40;;;;;;;19.16;64.53;98619.00;223703;183;136710;-65
2023/06/16 22:17:20;;;;;;;14.70;12.70;;;;;;;19.12;64.68;98621.03;223650;183;145516;-65
2023/06/16 22:50:46;;;;;;;13.20;11.40;;;;;;;18.76;66.10;98613.03;222074;192;665683;-65
2023/06/16 22:55:50;;;;;;;15.70;11.70;;;;;;;18.76;66.06;98619.04;223546;184;136670;-65
2023/06/16 23:00:54;;;;;;;14.60;12.10;;;;;;;18.76;66.09;98617.39;223792;182;143608;-65
2023/06/16 23:06:03;;;;;;;14.90;11.70;;;;;;;18.73;66.16;98608.56;223638;182;139563;-65
2023/06/16 23:11:07;;;;;;;15.30;12.30;;;;;;;18.68;66.26;98609.16;223590;182;136592;-66
2023/06/16 23:16:11;;;;;;;15.00;12.40;;;;;;;18.56;66.43;98609.32;223711;183;143869;-66
2023/06/16 23:21:15;;;;;;;15.30;12.20;;;;;;;18.51;66.42;98600.69;223697;183;139004;-65
2023/06/16 23:26:20;;;;;;;13.30;11.40;;;;;;;18.42;66.62;98598.64;223800;182;136798;-64
2023/06/16 23:31:25;;;;;;;15.20;11.70;;;;;;;18.39;66.87;98597.19;223841;181;143561;-65
2023/06/16 23:36:31;;;;;;;;;;;;;;;18.34;66.89;98593.75;223702;182;138552;-65
2023/06/16 23:41:37;;;;;;;15.50;11.90;;;;;;;18.31;67.15;98594.97;223913;182;130170;-65
2023/06/16 23:46:42;;;;;;;17.10;12.90;;;;;;;18.23;67.22;98587.39;223514;182;145185;-66
2023/06/16 23:51:51;;;;;;;17.10;11.70;;;;;;;18.10;67.21;98582.73;223574;182;139035;-66
2023/06/16 23:56:54;;;;;;;14.50;12.50;;;;;;;17.96;67.57;98584.81;223754;182;137934;-64
